CheckWX is a tool to help pilots better visualize weather data.  It is not intended as a substitute for an official pre-flight weather briefing.

16:01:56 UTC

KRWI METAR
Rocky Mount-Wilson Regional Airport
Rocky Mount, North Carolina, USA
Current

9 mins ago

KRWI 261553Z AUTO VRB05KT 10SM CLR 32/21 A3007 RMK AO2 SLP180 T03220206
Observed
May-26 @ 15:53 UTC
Wind
  • Variable at 5 KTS
Visibility
10 SM
Flight Rules
VFR
Cloud Levels
  • Clear skies
Temperature
32°C / 90°F
Dewpoint
21°C / 70°F
Heat Index
36°C / 96°F
Humidity
52%
Altimeter
30.07" Hg
Pressure
1018.32 hPa
Previous

1 hour ago

KRWI 261453Z AUTO 29008KT 10SM CLR 31/22 A3008 RMK AO2 SLP185 T03110217 57003
Observed
May-26 @ 14:53 UTC
Wind
  • 290° at 8 KTS
Visibility
10 SM
Flight Rules
VFR
Cloud Levels
  • Clear skies
Temperature
31°C / 88°F
Dewpoint
22°C / 72°F
Heat Index
35°C / 95°F
Humidity
59%
Altimeter
30.08" Hg
Pressure
1018.62 hPa
Previous

2 hours ago

KRWI 261353Z AUTO VRB06KT 10SM CLR 29/23 A3008 RMK AO2 SLP186 T02890233
Observed
May-26 @ 13:53 UTC
Wind
  • Variable at 6 KTS
Visibility
10 SM
Flight Rules
VFR
Cloud Levels
  • Clear skies
Temperature
29°C / 84°F
Dewpoint
23°C / 73°F
Heat Index
32°C / 90°F
Humidity
70%
Altimeter
30.08" Hg
Pressure
1018.62 hPa